Mondango 3 — ZGDS — position and weather

sailwx.info

Track history (hours):
 
Tides and Currents Weather Stations Pressure Air Temp Water Temp Dewpoint Dewpoint Depression Visibility Wind Speed Wind Dir Waves Ship Positions

Mondango 3

Last reported at 2018-Feb-23 13:29 UTC. Time now 2018-Feb-24 08:38 UTC.
Position N 15°44' W 061°34'.

Length 57 m; draft 4 m.

Type: Sailing vessel. MMSI: 319061300.

Date/timePositionNaut miles runAvg speedWind from/ knotsBaromVisibWave heightAir tempDewpointWater temp
2018-Feb-23 13:29N 15°44' W 061°34'68 3.0
2018-Feb-22 15:01N 14°40' W 061°11'0 8.1
2018-Feb-22 15:00N 14°40' W 061°11'2 3.1
2018-Feb-22 14:29N 14°39' W 061°10'5 9.7
2018-Feb-22 14:00N 14°35' W 061°08'610.9
2018-Feb-22 13:30N 14°29' W 061°06'5 9.2
2018-Feb-22 12:58N 14°27' W 061°01'5 9.8
2018-Feb-22 12:30N 14°27' W 060°57'4 7.4
2018-Feb-22 12:00N 14°27' W 060°53'0 0.1
2018-Feb-22 11:27N 14°27' W 060°53'0 0.0
2018-Feb-22 10:57N 14°27' W 060°53'0 0.0
2018-Feb-22 10:27N 14°27' W 060°53'0 0.0
2018-Feb-22 09:57N 14°27' W 060°53'0 0.0
2018-Feb-22 09:27N 14°27' W 060°53'0 0.0
2018-Feb-22 08:57N 14°27' W 060°53'0 0.0
2018-Feb-22 08:27N 14°27' W 060°53'0 0.0
2018-Feb-22 07:57N 14°27' W 060°53'0 0.0
2018-Feb-22 07:27N 14°27' W 060°53'0 0.0
2018-Feb-22 06:21N 14°27' W 060°53'0 0.0
2018-Feb-22 05:57N 14°27' W 060°53'0 0.0
2018-Feb-22 05:27N 14°27' W 060°53'0 0.0
2018-Feb-22 04:57N 14°27' W 060°53'0 0.0
2018-Feb-22 04:21N 14°27' W 060°53'0 0.0
2018-Feb-22 03:27N 14°27' W 060°53'0 0.0
2018-Feb-22 02:45N 14°27' W 060°53'0 0.0
2018-Feb-22 02:27N 14°27' W 060°53'0 0.0
2018-Feb-22 01:57N 14°27' W 060°53'0 0.0
2018-Feb-22 01:27N 14°27' W 060°53'0 0.0
2018-Feb-22 00:57N 14°27' W 060°53'0 0.0
2018-Feb-22 00:27N 14°27' W 060°53'0 0.0
2018-Feb-21 23:57N 14°27' W 060°53'0 0.0
2018-Feb-21 23:27N 14°27' W 060°53'0 0.0
2018-Feb-21 22:57N 14°27' W 060°53'0 0.0
2018-Feb-21 22:27N 14°27' W 060°53'0 0.0
2018-Feb-21 21:57N 14°27' W 060°53'0 0.0
2018-Feb-21 21:27N 14°27' W 060°53'0 0.0
2018-Feb-21 20:57N 14°27' W 060°53'0 0.0
2018-Feb-21 20:27N 14°27' W 060°53'0 0.0
2018-Feb-21 19:57N 14°27' W 060°53'0 0.0
2018-Feb-21 19:27N 14°27' W 060°53'0 0.0
2018-Feb-21 18:57N 14°27' W 060°53'0 0.0
2018-Feb-21 18:27N 14°27' W 060°53'0 0.0
2018-Feb-21 17:57N 14°27' W 060°53'0 0.0
2018-Feb-21 17:27N 14°27' W 060°53'0 0.0
2018-Feb-21 16:57N 14°27' W 060°53'0 0.0
2018-Feb-21 16:27N 14°27' W 060°53'0 0.0
2018-Feb-21 15:57N 14°27' W 060°53'0 0.0
2018-Feb-21 15:27N 14°27' W 060°53'0 0.0
2018-Feb-21 14:57N 14°27' W 060°53'0 0.0
2018-Feb-21 14:27N 14°27' W 060°53'0 0.0
2018-Feb-21 13:57N 14°27' W 060°53'0 0.0
2018-Feb-21 13:27N 14°27' W 060°53'0 0.0
2018-Feb-21 12:57N 14°27' W 060°53'0 0.0
2018-Feb-21 12:27N 14°27' W 060°53'0 0.0
2018-Feb-21 11:57N 14°27' W 060°53'0 0.0
2018-Feb-21 11:27N 14°27' W 060°53'0 0.0
2018-Feb-21 10:57N 14°27' W 060°53'0 0.0
2018-Feb-21 10:27N 14°27' W 060°53'0 0.0
2018-Feb-21 09:57N 14°27' W 060°53'0 0.0
2018-Feb-21 09:27N 14°27' W 060°53'0 0.0
2018-Feb-21 08:57N 14°27' W 060°53'0 0.0
2018-Feb-21 08:27N 14°27' W 060°53'0 0.0
2018-Feb-21 07:57N 14°27' W 060°53'0 0.0
2018-Feb-21 07:27N 14°27' W 060°53'0 0.0
2018-Feb-21 06:57N 14°27' W 060°53'0 0.0
2018-Feb-21 06:27N 14°27' W 060°53'0 0.0
2018-Feb-21 05:57N 14°27' W 060°53'0 0.0
2018-Feb-21 05:27N 14°27' W 060°53'0 0.0
2018-Feb-21 04:57N 14°27' W 060°53'0 0.0
2018-Feb-21 04:27N 14°27' W 060°53'0 0.0
2018-Feb-21 03:57N 14°27' W 060°53'0 0.0
2018-Feb-21 03:27N 14°27' W 060°53'0 0.0
2018-Feb-21 02:57N 14°27' W 060°53'0 0.0
2018-Feb-21 02:27N 14°27' W 060°53'0 0.0
2018-Feb-21 01:57N 14°27' W 060°53'0 0.0
2018-Feb-21 01:21N 14°27' W 060°53'0 0.0
2018-Feb-21 00:57N 14°27' W 060°53'0 0.0
2018-Feb-20 22:21N 14°27' W 060°53'0 0.0
2018-Feb-20 21:57N 14°27' W 060°53'0 0.0
2018-Feb-20 21:15N 14°27' W 060°53'0 0.0
2018-Feb-20 20:57N 14°27' W 060°53'0 0.0
2018-Feb-20 19:39N 14°27' W 060°53'0 0.0
2018-Feb-20 19:27N 14°27' W 060°53'0 0.0
2018-Feb-20 18:51N 14°27' W 060°53'0 0.0
2018-Feb-20 18:15N 14°27' W 060°53'0 0.0
2018-Feb-20 17:51N 14°27' W 060°53'0 0.0
2018-Feb-20 15:33N 14°27' W 060°53'0 0.0
2018-Feb-20 10:39N 14°27' W 060°53'0 0.0
2018-Feb-20 10:03N 14°27' W 060°53'0 0.0
2018-Feb-20 09:57N 14°27' W 060°53'0 0.0
2018-Feb-20 09:27N 14°27' W 060°53'0 0.0
2018-Feb-20 08:57N 14°27' W 060°53'0 0.0
2018-Feb-20 08:27N 14°27' W 060°53'0 0.0
2018-Feb-20 07:57N 14°27' W 060°53'0 0.0
2018-Feb-20 07:27N 14°27' W 060°53'0 0.0
2018-Feb-20 06:21N 14°27' W 060°53'0 0.0
2018-Feb-20 05:57N 14°27' W 060°53'0 0.0
2018-Feb-20 05:27N 14°27' W 060°53'0 0.0
2018-Feb-20 04:57N 14°27' W 060°53'0 0.0
2018-Feb-20 04:27N 14°27' W 060°53'0 0.0
2018-Feb-20 03:57N 14°27' W 060°53'0 0.0
2018-Feb-20 03:27N 14°27' W 060°53'0 0.0
2018-Feb-20 02:57N 14°27' W 060°53'0 0.0
2018-Feb-20 02:27N 14°27' W 060°53'0 0.0
2018-Feb-20 01:57N 14°27' W 060°53'0 0.0
2018-Feb-20 01:27N 14°27' W 060°53'0 0.0
2018-Feb-20 00:57N 14°27' W 060°53'0 0.0
2018-Feb-20 00:27N 14°27' W 060°53'0 0.0
2018-Feb-19 23:57N 14°27' W 060°53'0 0.0
2018-Feb-19 23:27N 14°27' W 060°53'0 0.0
2018-Feb-19 22:57N 14°27' W 060°53'0 0.0
2018-Feb-19 22:27N 14°27' W 060°53'0 0.0
2018-Feb-19 21:57N 14°27' W 060°53'0 0.0
2018-Feb-19 21:21N 14°27' W 060°53'0 0.0
2018-Feb-19 20:15N 14°27' W 060°53'0 0.0
2018-Feb-19 19:57N 14°27' W 060°53'0 0.0
2018-Feb-19 19:27N 14°27' W 060°53'0 0.0
2018-Feb-19 18:57N 14°27' W 060°53'0 0.0
2018-Feb-19 18:27N 14°27' W 060°53'0 0.0
2018-Feb-19 17:57N 14°27' W 060°53'0 0.0
2018-Feb-19 17:27N 14°27' W 060°53'0 0.0
2018-Feb-19 16:39N 14°27' W 060°53'0 0.0
2018-Feb-19 16:27N 14°27' W 060°53'0 0.0
2018-Feb-19 15:57N 14°27' W 060°53'0 0.0
2018-Feb-19 15:15N 14°27' W 060°53'0 0.0
2018-Feb-19 14:57N 14°27' W 060°53'0 0.0
2018-Feb-19 14:15N 14°27' W 060°53'0 0.0
2018-Feb-19 13:57N 14°27' W 060°53'0 0.0
2018-Feb-19 13:27N 14°27' W 060°53'0 0.0
2018-Feb-19 12:57N 14°27' W 060°53'0 0.0
2018-Feb-19 12:27N 14°27' W 060°53'0 0.0
2018-Feb-19 11:51N 14°27' W 060°53'0 0.0
2018-Feb-19 11:21N 14°27' W 060°53'0 0.0
2018-Feb-19 10:57N 14°27' W 060°53'0 0.0
2018-Feb-19 10:27N 14°27' W 060°53'0 0.0
2018-Feb-19 09:51N 14°27' W 060°53'0 0.0
2018-Feb-19 09:27N 14°27' W 060°53'0 0.0
2018-Feb-19 08:57N 14°27' W 060°53'0 0.0
2018-Feb-19 08:21N 14°27' W 060°53'0 0.0
2018-Feb-19 07:57N 14°27' W 060°53'0 0.0
2018-Feb-19 07:27N 14°27' W 060°53'0 0.0
2018-Feb-19 06:15N 14°27' W 060°53'0 0.0
2018-Feb-19 05:57N 14°27' W 060°53'0 0.0
2018-Feb-19 05:27N 14°27' W 060°53'0 0.0
2018-Feb-19 04:57N 14°27' W 060°53'0 0.0
2018-Feb-19 04:27N 14°27' W 060°53'0 0.0
2018-Feb-19 03:57N 14°27' W 060°53'0 0.0
2018-Feb-19 03:27N 14°27' W 060°53'0 0.0
2018-Feb-19 02:57N 14°27' W 060°53'0 0.0
2018-Feb-19 02:27N 14°27' W 060°53'0 0.0
2018-Feb-19 01:57N 14°27' W 060°53'0 0.0
2018-Feb-19 01:27N 14°27' W 060°53'0 0.0
2018-Feb-19 00:57N 14°27' W 060°53'0 0.0
2018-Feb-19 00:27N 14°27' W 060°53'0 0.0
2018-Feb-18 23:57N 14°27' W 060°53'0 0.0
2018-Feb-18 23:27N 14°27' W 060°53'0 0.0
2018-Feb-18 22:57N 14°27' W 060°53'0 0.0
2018-Feb-18 22:27N 14°27' W 060°53'0 0.0
2018-Feb-18 21:57N 14°27' W 060°53'1 3.1
2018-Feb-18 21:30N 14°27' W 060°54'4 8.1
2018-Feb-18 21:00N 14°23' W 060°55'611.4
2018-Feb-18 20:30N 14°22' W 060°50'4 6.7
2018-Feb-18 19:52N 14°22' W 060°45'410.4
2018-Feb-18 19:30N 14°26' W 060°44'5 9.6
2018-Feb-18 19:00N 14°31' W 060°44'3 6.4
2018-Feb-18 18:29N 14°34' W 060°45'4 7.9
2018-Feb-18 17:58N 14°37' W 060°48'3 0.6
2018-Feb-18 13:23N 14°38' W 060°50'4 9.8
2018-Feb-18 13:01N 14°35' W 060°50'5 9.7
2018-Feb-18 12:28N 14°30' W 060°47'510.8
2018-Feb-18 12:00N 14°25' W 060°49'4 8.3
2018-Feb-18 11:30N 14°23' W 060°52'4 7.1
2018-Feb-18 11:01N 14°26' W 060°55'3 4.8
2018-Feb-18 10:29N 14°27' W 060°53'0 0.0
2018-Feb-18 10:00N 14°27' W 060°53'0 0.0
2018-Feb-18 09:26N 14°27' W 060°53'0 0.0
2018-Feb-18 08:59N 14°27' W 060°53'0 0.0
2018-Feb-18 08:28N 14°27' W 060°53'0 0.0
2018-Feb-18 07:55N 14°27' W 060°53'0 0.0
2018-Feb-18 07:28N 14°27' W 060°53'0 0.0
2018-Feb-18 06:17N 14°27' W 060°53'0 0.0
2018-Feb-18 05:59N 14°27' W 060°53'0 0.0
2018-Feb-18 05:29N 14°27' W 060°53'0 0.0
2018-Feb-18 04:59N 14°27' W 060°53'0 0.0
2018-Feb-18 04:29N 14°27' W 060°53'0 0.0
2018-Feb-18 03:59N 14°27' W 060°53'0 0.0
2018-Feb-18 03:29N 14°27' W 060°53'0 0.0
2018-Feb-18 02:59N 14°27' W 060°53'0 0.0
2018-Feb-18 02:29N 14°27' W 060°53'0 0.0
2018-Feb-18 01:59N 14°27' W 060°53'0 0.0
2018-Feb-18 01:29N 14°27' W 060°53'0 0.0
2018-Feb-18 00:59N 14°27' W 060°53'0 0.0
2018-Feb-18 00:29N 14°27' W 060°53'0 0.0
2018-Feb-17 23:59N 14°27' W 060°53'0 0.0
2018-Feb-17 23:29N 14°27' W 060°53'1 2.3
2018-Feb-17 23:00N 14°27' W 060°54'5 9.6
2018-Feb-17 22:30N 14°27' W 060°59'510.1
2018-Feb-17 22:00N 14°27' W 061°04'101 4.0
2018-Feb-16 20:57N 15°60' W 061°46'18 9.8
2018-Feb-16 19:04N 16°11' W 062°01'312.7
2018-Feb-16 18:51N 16°14' W 062°03'412.3
2018-Feb-16 18:30N 16°17' W 062°06'5 9.3
2018-Feb-16 17:58N 16°21' W 062°09'510.6
2018-Feb-16 17:30N 16°24' W 062°12'510.7
2018-Feb-16 17:00N 16°29' W 062°15'510.2
2018-Feb-16 16:30N 16°33' W 062°18'5 9.3
2018-Feb-16 15:58N 16°37' W 062°22'510.2
2018-Feb-16 15:30N 16°41' W 062°24'4 8.3
2018-Feb-16 15:00N 16°43' W 062°28'1011.4
2018-Feb-16 14:06N 16°53' W 062°32'111.4
2018-Feb-16 13:59N 16°54' W 062°33'26 0.6
2018-Feb-14 20:07N 17°17' W 062°46'13 9.7
2018-Feb-14 18:44N 17°25' W 062°57'3 9.2
2018-Feb-14 18:27N 17°27' W 062°59'3 1.9
2018-Feb-14 16:56N 17°29' W 063°01'710.6
2018-Feb-14 16:14N 17°37' W 063°03'513.5
2018-Feb-14 15:53N 17°41' W 063°03'613.5
2018-Feb-14 15:29N 17°47' W 063°04'912.5
2018-Feb-14 14:46N 17°56' W 063°05'412.8
2018-Feb-14 14:28N 17°59' W 063°06'3 3.4
2018-Feb-14 13:39N 18°02' W 063°06'1 4.1
2018-Feb-14 13:29N 18°02' W 063°06'0 0.3
2018-Feb-14 12:53N 18°02' W 063°06'0 0.1
2018-Feb-14 12:24N 18°02' W 063°06'0 0.3
2018-Feb-14 11:58N 18°02' W 063°06'0 0.0
2018-Feb-14 10:57N 18°02' W 063°06'0 0.0
2018-Feb-14 10:28N 18°02' W 063°06'0 0.0
2018-Feb-14 09:58N 18°02' W 063°06'0 0.0
2018-Feb-14 09:27N 18°02' W 063°06'0 0.0
2018-Feb-14 08:58N 18°02' W 063°06'0 0.0
2018-Feb-14 08:27N 18°02' W 063°06'0 0.0
2018-Feb-14 08:00N 18°02' W 063°06'0 0.0
2018-Feb-14 07:27N 18°02' W 063°06'0 0.0
2018-Feb-14 07:00N 18°02' W 063°06'0 0.0
2018-Feb-14 06:28N 18°02' W 063°06'0 0.0
2018-Feb-14 06:00N 18°02' W 063°06'0 0.0
2018-Feb-14 05:18N 18°02' W 063°06'0 0.0
2018-Feb-14 05:00N 18°02' W 063°06'0 0.0
2018-Feb-14 04:22N 18°02' W 063°06'0 0.0
2018-Feb-14 03:52N 18°02' W 063°06'0 0.0
2018-Feb-14 03:30N 18°02' W 063°06'0 0.0
2018-Feb-14 02:52N 18°02' W 063°06'0 0.0
2018-Feb-14 02:22N 18°02' W 063°06'0 0.0
2018-Feb-14 01:51N 18°02' W 063°06'0 0.0
2018-Feb-14 01:21N 18°02' W 063°06'0 0.0
2018-Feb-14 00:55N 18°02' W 063°06'0 0.0
2018-Feb-14 00:24N 18°02' W 063°06'0 0.0
2018-Feb-13 23:55N 18°02' W 063°06'0 0.0
2018-Feb-13 23:24N 18°02' W 063°06'0 0.0
2018-Feb-13 22:58N 18°02' W 063°06'0 0.0
2018-Feb-13 22:28N 18°02' W 063°06'0 0.0
2018-Feb-13 21:58N 18°02' W 063°06'0 0.0
2018-Feb-13 21:28N 18°02' W 063°06'0 0.0
2018-Feb-13 20:54N 18°02' W 063°06'0 0.0
2018-Feb-13 20:27N 18°02' W 063°06'0 0.0
2018-Feb-13 19:58N 18°02' W 063°06'0 0.0
2018-Feb-13 19:24N 18°02' W 063°06'0 0.0
2018-Feb-13 18:57N 18°02' W 063°06'0 0.0
2018-Feb-13 18:27N 18°02' W 063°06'0 0.0
2018-Feb-13 17:58N 18°02' W 063°06'0 0.0
2018-Feb-13 17:30N 18°02' W 063°06'0 0.0
2018-Feb-13 16:58N 18°02' W 063°06'0 0.0
2018-Feb-13 16:30N 18°02' W 063°06'0 0.0
2018-Feb-13 15:49N 18°02' W 063°06'0 0.0
2018-Feb-13 15:19N 18°02' W 063°06'0 0.0
2018-Feb-13 14:52N 18°02' W 063°06'0 0.0
2018-Feb-13 14:22N 18°02' W 063°06'0 0.0
2018-Feb-13 13:52N 18°02' W 063°06'  
Track history (hours):
 
Tides and Currents Weather Stations Pressure Air Temp Water Temp Dewpoint Dewpoint Depression Visibility Wind Speed Wind Dir Waves Ship Positions

Mondango 3

Last reported at 2018-Feb-23 13:29 UTC. Time now 2018-Feb-24 08:38 UTC.
Position N 15°44' W 061°34'.

Length 57 m; draft 4 m.

Type: Sailing vessel. MMSI: 319061300.

Date/timePositionNaut miles runAvg speedWind from/ knotsBaromVisibWave heightAir tempDewpointWater temp
2018-Feb-23 13:29N 15°44' W 061°34'68 3.0
2018-Feb-22 15:01N 14°40' W 061°11'0 8.1
2018-Feb-22 15:00N 14°40' W 061°11'2 3.1
2018-Feb-22 14:29N 14°39' W 061°10'5 9.7
2018-Feb-22 14:00N 14°35' W 061°08'610.9
2018-Feb-22 13:30N 14°29' W 061°06'5 9.2
2018-Feb-22 12:58N 14°27' W 061°01'5 9.8
2018-Feb-22 12:30N 14°27' W 060°57'4 7.4
2018-Feb-22 12:00N 14°27' W 060°53'0 0.1
2018-Feb-22 11:27N 14°27' W 060°53'0 0.0
2018-Feb-22 10:57N 14°27' W 060°53'0 0.0
2018-Feb-22 10:27N 14°27' W 060°53'0 0.0
2018-Feb-22 09:57N 14°27' W 060°53'0 0.0
2018-Feb-22 09:27N 14°27' W 060°53'0 0.0
2018-Feb-22 08:57N 14°27' W 060°53'0 0.0
2018-Feb-22 08:27N 14°27' W 060°53'0 0.0
2018-Feb-22 07:57N 14°27' W 060°53'0 0.0
2018-Feb-22 07:27N 14°27' W 060°53'0 0.0
2018-Feb-22 06:21N 14°27' W 060°53'0 0.0
2018-Feb-22 05:57N 14°27' W 060°53'0 0.0
2018-Feb-22 05:27N 14°27' W 060°53'0 0.0
2018-Feb-22 04:57N 14°27' W 060°53'0 0.0
2018-Feb-22 04:21N 14°27' W 060°53'0 0.0
2018-Feb-22 03:27N 14°27' W 060°53'0 0.0
2018-Feb-22 02:45N 14°27' W 060°53'0 0.0
2018-Feb-22 02:27N 14°27' W 060°53'0 0.0
2018-Feb-22 01:57N 14°27' W 060°53'0 0.0
2018-Feb-22 01:27N 14°27' W 060°53'0 0.0
2018-Feb-22 00:57N 14°27' W 060°53'0 0.0
2018-Feb-22 00:27N 14°27' W 060°53'0 0.0
2018-Feb-21 23:57N 14°27' W 060°53'0 0.0
2018-Feb-21 23:27N 14°27' W 060°53'0 0.0
2018-Feb-21 22:57N 14°27' W 060°53'0 0.0
2018-Feb-21 22:27N 14°27' W 060°53'0 0.0
2018-Feb-21 21:57N 14°27' W 060°53'0 0.0
2018-Feb-21 21:27N 14°27' W 060°53'0 0.0
2018-Feb-21 20:57N 14°27' W 060°53'0 0.0
2018-Feb-21 20:27N 14°27' W 060°53'0 0.0
2018-Feb-21 19:57N 14°27' W 060°53'0 0.0
2018-Feb-21 19:27N 14°27' W 060°53'0 0.0
2018-Feb-21 18:57N 14°27' W 060°53'0 0.0
2018-Feb-21 18:27N 14°27' W 060°53'0 0.0
2018-Feb-21 17:57N 14°27' W 060°53'0 0.0
2018-Feb-21 17:27N 14°27' W 060°53'0 0.0
2018-Feb-21 16:57N 14°27' W 060°53'0 0.0
2018-Feb-21 16:27N 14°27' W 060°53'0 0.0
2018-Feb-21 15:57N 14°27' W 060°53'0 0.0
2018-Feb-21 15:27N 14°27' W 060°53'0 0.0
2018-Feb-21 14:57N 14°27' W 060°53'0 0.0
2018-Feb-21 14:27N 14°27' W 060°53'0 0.0
2018-Feb-21 13:57N 14°27' W 060°53'0 0.0
2018-Feb-21 13:27N 14°27' W 060°53'0 0.0
2018-Feb-21 12:57N 14°27' W 060°53'0 0.0
2018-Feb-21 12:27N 14°27' W 060°53'0 0.0
2018-Feb-21 11:57N 14°27' W 060°53'0 0.0
2018-Feb-21 11:27N 14°27' W 060°53'0 0.0
2018-Feb-21 10:57N 14°27' W 060°53'0 0.0
2018-Feb-21 10:27N 14°27' W 060°53'0 0.0
2018-Feb-21 09:57N 14°27' W 060°53'0 0.0
2018-Feb-21 09:27N 14°27' W 060°53'0 0.0
2018-Feb-21 08:57N 14°27' W 060°53'0 0.0
2018-Feb-21 08:27N 14°27' W 060°53'0 0.0
2018-Feb-21 07:57N 14°27' W 060°53'0 0.0
2018-Feb-21 07:27N 14°27' W 060°53'0 0.0
2018-Feb-21 06:57N 14°27' W 060°53'0 0.0
2018-Feb-21 06:27N 14°27' W 060°53'0 0.0
2018-Feb-21 05:57N 14°27' W 060°53'0 0.0
2018-Feb-21 05:27N 14°27' W 060°53'0 0.0
2018-Feb-21 04:57N 14°27' W 060°53'0 0.0
2018-Feb-21 04:27N 14°27' W 060°53'0 0.0
2018-Feb-21 03:57N 14°27' W 060°53'0 0.0
2018-Feb-21 03:27N 14°27' W 060°53'0 0.0
2018-Feb-21 02:57N 14°27' W 060°53'0 0.0
2018-Feb-21 02:27N 14°27' W 060°53'0 0.0
2018-Feb-21 01:57N 14°27' W 060°53'0 0.0
2018-Feb-21 01:21N 14°27' W 060°53'0 0.0
2018-Feb-21 00:57N 14°27' W 060°53'0 0.0
2018-Feb-20 22:21N 14°27' W 060°53'0 0.0
2018-Feb-20 21:57N 14°27' W 060°53'0 0.0
2018-Feb-20 21:15N 14°27' W 060°53'0 0.0
2018-Feb-20 20:57N 14°27' W 060°53'0 0.0
2018-Feb-20 19:39N 14°27' W 060°53'0 0.0
2018-Feb-20 19:27N 14°27' W 060°53'0 0.0
2018-Feb-20 18:51N 14°27' W 060°53'0 0.0
2018-Feb-20 18:15N 14°27' W 060°53'0 0.0
2018-Feb-20 17:51N 14°27' W 060°53'0 0.0
2018-Feb-20 15:33N 14°27' W 060°53'0 0.0
2018-Feb-20 10:39N 14°27' W 060°53'0 0.0
2018-Feb-20 10:03N 14°27' W 060°53'0 0.0
2018-Feb-20 09:57N 14°27' W 060°53'0 0.0
2018-Feb-20 09:27N 14°27' W 060°53'0 0.0
2018-Feb-20 08:57N 14°27' W 060°53'0 0.0
2018-Feb-20 08:27N 14°27' W 060°53'0 0.0
2018-Feb-20 07:57N 14°27' W 060°53'0 0.0
2018-Feb-20 07:27N 14°27' W 060°53'0 0.0
2018-Feb-20 06:21N 14°27' W 060°53'0 0.0
2018-Feb-20 05:57N 14°27' W 060°53'0 0.0
2018-Feb-20 05:27N 14°27' W 060°53'0 0.0
2018-Feb-20 04:57N 14°27' W 060°53'0 0.0
2018-Feb-20 04:27N 14°27' W 060°53'0 0.0
2018-Feb-20 03:57N 14°27' W 060°53'0 0.0
2018-Feb-20 03:27N 14°27' W 060°53'0 0.0
2018-Feb-20 02:57N 14°27' W 060°53'0 0.0
2018-Feb-20 02:27N 14°27' W 060°53'0 0.0
2018-Feb-20 01:57N 14°27' W 060°53'0 0.0
2018-Feb-20 01:27N 14°27' W 060°53'0 0.0
2018-Feb-20 00:57N 14°27' W 060°53'0 0.0
2018-Feb-20 00:27N 14°27' W 060°53'0 0.0
2018-Feb-19 23:57N 14°27' W 060°53'0 0.0
2018-Feb-19 23:27N 14°27' W 060°53'0 0.0
2018-Feb-19 22:57N 14°27' W 060°53'0 0.0
2018-Feb-19 22:27N 14°27' W 060°53'0 0.0
2018-Feb-19 21:57N 14°27' W 060°53'0 0.0
2018-Feb-19 21:21N 14°27' W 060°53'0 0.0
2018-Feb-19 20:15N 14°27' W 060°53'0 0.0
2018-Feb-19 19:57N 14°27' W 060°53'0 0.0
2018-Feb-19 19:27N 14°27' W 060°53'0 0.0
2018-Feb-19 18:57N 14°27' W 060°53'0 0.0
2018-Feb-19 18:27N 14°27' W 060°53'0 0.0
2018-Feb-19 17:57N 14°27' W 060°53'0 0.0
2018-Feb-19 17:27N 14°27' W 060°53'0 0.0
2018-Feb-19 16:39N 14°27' W 060°53'0 0.0
2018-Feb-19 16:27N 14°27' W 060°53'0 0.0
2018-Feb-19 15:57N 14°27' W 060°53'0 0.0
2018-Feb-19 15:15N 14°27' W 060°53'0 0.0
2018-Feb-19 14:57N 14°27' W 060°53'0 0.0
2018-Feb-19 14:15N 14°27' W 060°53'0 0.0
2018-Feb-19 13:57N 14°27' W 060°53'0 0.0
2018-Feb-19 13:27N 14°27' W 060°53'0 0.0
2018-Feb-19 12:57N 14°27' W 060°53'0 0.0
2018-Feb-19 12:27N 14°27' W 060°53'0 0.0
2018-Feb-19 11:51N 14°27' W 060°53'0 0.0
2018-Feb-19 11:21N 14°27' W 060°53'0 0.0
2018-Feb-19 10:57N 14°27' W 060°53'0 0.0
2018-Feb-19 10:27N 14°27' W 060°53'0 0.0
2018-Feb-19 09:51N 14°27' W 060°53'0 0.0
2018-Feb-19 09:27N 14°27' W 060°53'0 0.0
2018-Feb-19 08:57N 14°27' W 060°53'0 0.0
2018-Feb-19 08:21N 14°27' W 060°53'0 0.0
2018-Feb-19 07:57N 14°27' W 060°53'0 0.0
2018-Feb-19 07:27N 14°27' W 060°53'0 0.0
2018-Feb-19 06:15N 14°27' W 060°53'0 0.0
2018-Feb-19 05:57N 14°27' W 060°53'0 0.0
2018-Feb-19 05:27N 14°27' W 060°53'0 0.0
2018-Feb-19 04:57N 14°27' W 060°53'0 0.0
2018-Feb-19 04:27N 14°27' W 060°53'0 0.0
2018-Feb-19 03:57N 14°27' W 060°53'0 0.0
2018-Feb-19 03:27N 14°27' W 060°53'0 0.0
2018-Feb-19 02:57N 14°27' W 060°53'0 0.0
2018-Feb-19 02:27N 14°27' W 060°53'0 0.0
2018-Feb-19 01:57N 14°27' W 060°53'0 0.0
2018-Feb-19 01:27N 14°27' W 060°53'0 0.0
2018-Feb-19 00:57N 14°27' W 060°53'0 0.0
2018-Feb-19 00:27N 14°27' W 060°53'0 0.0
2018-Feb-18 23:57N 14°27' W 060°53'0 0.0
2018-Feb-18 23:27N 14°27' W 060°53'0 0.0
2018-Feb-18 22:57N 14°27' W 060°53'0 0.0
2018-Feb-18 22:27N 14°27' W 060°53'0 0.0
2018-Feb-18 21:57N 14°27' W 060°53'1 3.1
2018-Feb-18 21:30N 14°27' W 060°54'4 8.1
2018-Feb-18 21:00N 14°23' W 060°55'611.4
2018-Feb-18 20:30N 14°22' W 060°50'4 6.7
2018-Feb-18 19:52N 14°22' W 060°45'410.4
2018-Feb-18 19:30N 14°26' W 060°44'5 9.6
2018-Feb-18 19:00N 14°31' W 060°44'3 6.4
2018-Feb-18 18:29N 14°34' W 060°45'4 7.9
2018-Feb-18 17:58N 14°37' W 060°48'3 0.6
2018-Feb-18 13:23N 14°38' W 060°50'4 9.8
2018-Feb-18 13:01N 14°35' W 060°50'5 9.7
2018-Feb-18 12:28N 14°30' W 060°47'510.8
2018-Feb-18 12:00N 14°25' W 060°49'4 8.3
2018-Feb-18 11:30N 14°23' W 060°52'4 7.1
2018-Feb-18 11:01N 14°26' W 060°55'3 4.8
2018-Feb-18 10:29N 14°27' W 060°53'0 0.0
2018-Feb-18 10:00N 14°27' W 060°53'0 0.0
2018-Feb-18 09:26N 14°27' W 060°53'0 0.0
2018-Feb-18 08:59N 14°27' W 060°53'0 0.0
2018-Feb-18 08:28N 14°27' W 060°53'0 0.0
2018-Feb-18 07:55N 14°27' W 060°53'0 0.0
2018-Feb-18 07:28N 14°27' W 060°53'0 0.0
2018-Feb-18 06:17N 14°27' W 060°53'0 0.0
2018-Feb-18 05:59N 14°27' W 060°53'0 0.0
2018-Feb-18 05:29N 14°27' W 060°53'0 0.0
2018-Feb-18 04:59N 14°27' W 060°53'0 0.0
2018-Feb-18 04:29N 14°27' W 060°53'0 0.0
2018-Feb-18 03:59N 14°27' W 060°53'0 0.0
2018-Feb-18 03:29N 14°27' W 060°53'0 0.0
2018-Feb-18 02:59N 14°27' W 060°53'0 0.0
2018-Feb-18 02:29N 14°27' W 060°53'0 0.0
2018-Feb-18 01:59N 14°27' W 060°53'0 0.0
2018-Feb-18 01:29N 14°27' W 060°53'0 0.0
2018-Feb-18 00:59N 14°27' W 060°53'0 0.0
2018-Feb-18 00:29N 14°27' W 060°53'0 0.0
2018-Feb-17 23:59N 14°27' W 060°53'0 0.0
2018-Feb-17 23:29N 14°27' W 060°53'1 2.3
2018-Feb-17 23:00N 14°27' W 060°54'5 9.6
2018-Feb-17 22:30N 14°27' W 060°59'510.1
2018-Feb-17 22:00N 14°27' W 061°04'101 4.0
2018-Feb-16 20:57N 15°60' W 061°46'18 9.8
2018-Feb-16 19:04N 16°11' W 062°01'312.7
2018-Feb-16 18:51N 16°14' W 062°03'412.3
2018-Feb-16 18:30N 16°17' W 062°06'5 9.3
2018-Feb-16 17:58N 16°21' W 062°09'510.6
2018-Feb-16 17:30N 16°24' W 062°12'510.7
2018-Feb-16 17:00N 16°29' W 062°15'510.2
2018-Feb-16 16:30N 16°33' W 062°18'5 9.3
2018-Feb-16 15:58N 16°37' W 062°22'510.2
2018-Feb-16 15:30N 16°41' W 062°24'4 8.3
2018-Feb-16 15:00N 16°43' W 062°28'1011.4
2018-Feb-16 14:06N 16°53' W 062°32'111.4
2018-Feb-16 13:59N 16°54' W 062°33'26 0.6
2018-Feb-14 20:07N 17°17' W 062°46'13 9.7
2018-Feb-14 18:44N 17°25' W 062°57'3 9.2
2018-Feb-14 18:27N 17°27' W 062°59'3 1.9
2018-Feb-14 16:56N 17°29' W 063°01'710.6
2018-Feb-14 16:14N 17°37' W 063°03'513.5
2018-Feb-14 15:53N 17°41' W 063°03'613.5
2018-Feb-14 15:29N 17°47' W 063°04'912.5
2018-Feb-14 14:46N 17°56' W 063°05'412.8
2018-Feb-14 14:28N 17°59' W 063°06'3 3.4
2018-Feb-14 13:39N 18°02' W 063°06'1 4.1
2018-Feb-14 13:29N 18°02' W 063°06'0 0.3
2018-Feb-14 12:53N 18°02' W 063°06'0 0.1
2018-Feb-14 12:24N 18°02' W 063°06'0 0.3
2018-Feb-14 11:58N 18°02' W 063°06'0 0.0
2018-Feb-14 10:57N 18°02' W 063°06'0 0.0
2018-Feb-14 10:28N 18°02' W 063°06'0 0.0
2018-Feb-14 09:58N 18°02' W 063°06'0 0.0
2018-Feb-14 09:27N 18°02' W 063°06'0 0.0
2018-Feb-14 08:58N 18°02' W 063°06'0 0.0
2018-Feb-14 08:27N 18°02' W 063°06'0 0.0
2018-Feb-14 08:00N 18°02' W 063°06'0 0.0
2018-Feb-14 07:27N 18°02' W 063°06'0 0.0
2018-Feb-14 07:00N 18°02' W 063°06'0 0.0
2018-Feb-14 06:28N 18°02' W 063°06'0 0.0
2018-Feb-14 06:00N 18°02' W 063°06'0 0.0
2018-Feb-14 05:18N 18°02' W 063°06'0 0.0
2018-Feb-14 05:00N 18°02' W 063°06'0 0.0
2018-Feb-14 04:22N 18°02' W 063°06'0 0.0
2018-Feb-14 03:52N 18°02' W 063°06'0 0.0
2018-Feb-14 03:30N 18°02' W 063°06'0 0.0
2018-Feb-14 02:52N 18°02' W 063°06'0 0.0
2018-Feb-14 02:22N 18°02' W 063°06'0 0.0
2018-Feb-14 01:51N 18°02' W 063°06'0 0.0
2018-Feb-14 01:21N 18°02' W 063°06'0 0.0
2018-Feb-14 00:55N 18°02' W 063°06'0 0.0
2018-Feb-14 00:24N 18°02' W 063°06'0 0.0
2018-Feb-13 23:55N 18°02' W 063°06'0 0.0
2018-Feb-13 23:24N 18°02' W 063°06'0 0.0
2018-Feb-13 22:58N 18°02' W 063°06'0 0.0
2018-Feb-13 22:28N 18°02' W 063°06'0 0.0
2018-Feb-13 21:58N 18°02' W 063°06'0 0.0
2018-Feb-13 21:28N 18°02' W 063°06'0 0.0
2018-Feb-13 20:54N 18°02' W 063°06'0 0.0
2018-Feb-13 20:27N 18°02' W 063°06'0 0.0
2018-Feb-13 19:58N 18°02' W 063°06'0 0.0
2018-Feb-13 19:24N 18°02' W 063°06'0 0.0
2018-Feb-13 18:57N 18°02' W 063°06'0 0.0
2018-Feb-13 18:27N 18°02' W 063°06'0 0.0
2018-Feb-13 17:58N 18°02' W 063°06'0 0.0
2018-Feb-13 17:30N 18°02' W 063°06'0 0.0
2018-Feb-13 16:58N 18°02' W 063°06'0 0.0
2018-Feb-13 16:30N 18°02' W 063°06'0 0.0
2018-Feb-13 15:49N 18°02' W 063°06'0 0.0
2018-Feb-13 15:19N 18°02' W 063°06'0 0.0
2018-Feb-13 14:52N 18°02' W 063°06'0 0.0
2018-Feb-13 14:22N 18°02' W 063°06'0 0.0
2018-Feb-13 13:52N 18°02' W 063°06'  

Dump ship's entire track history